Time;durP1;ratioP1;P1;durP2;ratioP2;P2;SDS_P1;SDS_P2;PMS_P1;PMS_P2;Temp;Humidity;BMP_temperature;BMP_pressure;BME280_temperature;BME280_humidity;BME280_pressure;Samples;Min_cycle;Max_cycle;Signal;HPM_P1;HPM_P2
2022/10/12 00:01:12;;;;;;;6.63;3.57;;;8.40;99.90;;;;;;5074991;28;20052;-72
2022/10/12 00:03:38;;;;;;;9.60;4.17;;;8.40;99.90;;;;;;5058107;28;20131;-72
2022/10/12 00:06:05;;;;;;;9.97;3.77;;;8.40;99.90;;;;;;5075134;28;20141;-71
2022/10/12 00:08:32;;;;;;;8.40;3.40;;;8.40;99.90;;;;;;5057190;28;20362;-72
2022/10/12 00:10:58;;;;;;;11.20;4.07;;;8.40;99.90;;;;;;5074759;28;20370;-72
2022/10/12 00:13:24;;;;;;;11.00;3.53;;;8.40;99.90;;;;;;5056586;28;20373;-72
2022/10/12 00:15:49;;;;;;;10.33;3.80;;;8.40;99.90;;;;;;5074430;28;20056;-72
2022/10/12 00:18:15;;;;;;;14.03;4.70;;;8.40;99.90;;;;;;5056252;28;20123;-72
2022/10/12 00:20:41;;;;;;;12.43;4.47;;;8.40;99.90;;;;;;5074660;28;20044;-72
2022/10/12 00:23:07;;;;;;;7.60;4.03;;;8.30;99.90;;;;;;5056687;28;20045;-71
2022/10/12 00:25:37;;;;;;;13.17;3.80;;;8.30;99.90;;;;;;5074156;28;20053;-72
2022/10/12 00:28:03;;;;;;;8.63;4.40;;;8.20;99.90;;;;;;5075311;28;20056;-72
2022/10/12 00:30:29;;;;;;;12.97;4.23;;;8.20;99.90;;;;;;5057604;28;20290;-72
2022/10/12 00:32:56;;;;;;;10.13;4.33;;;8.20;99.90;;;;;;5074293;28;20758;-73
2022/10/12 00:35:22;;;;;;;9.30;4.17;;;8.30;99.90;;;;;;5074319;28;20052;-72
2022/10/12 00:37:47;;;;;;;11.20;4.33;;;8.20;99.90;;;;;;5074292;28;20646;-72
2022/10/12 00:40:13;;;;;;;9.90;4.20;;;8.20;99.90;;;;;;5057354;28;20052;-72
2022/10/12 00:42:39;;;;;;;8.00;3.60;;;8.10;99.90;;;;;;5056400;28;20048;-71
2022/10/12 00:45:05;;;;;;;9.30;3.63;;;8.20;99.90;;;;;;5074143;28;20098;-72
2022/10/12 00:47:36;;;;;;;8.17;3.43;;;8.20;99.90;;;;;;5056504;28;20047;-71
2022/10/12 00:50:13;;;;;;;11.03;3.23;;;8.10;99.90;;;;;;5074000;28;20421;-72
2022/10/12 00:53:01;;;;;;;8.33;3.33;;;8.20;99.90;;;;;;5073609;28;20778;-72
2022/10/12 00:55:31;;;;;;;10.87;3.33;;;8.10;99.90;;;;;;5056615;28;20290;-72
2022/10/12 00:57:58;;;;;;;8.20;3.00;;;8.00;99.90;;;;;;5073585;28;20766;-72
2022/10/12 01:00:24;;;;;;;7.80;3.10;;;8.00;99.90;;;;;;5073789;28;20283;-72
2022/10/12 01:02:53;;;;;;;11.03;3.20;;;8.00;99.90;;;;;;5056122;28;20635;-72
2022/10/12 01:05:19;;;;;;;11.87;3.10;;;8.00;99.90;;;;;;5073768;28;20293;-72
2022/10/12 01:07:45;;;;;;;11.50;3.13;;;8.00;99.90;;;;;;5056012;28;20297;-72
2022/10/12 01:10:11;;;;;;;8.80;3.07;;;8.00;99.90;;;;;;5073703;28;20278;-72
2022/10/12 01:12:41;;;;;;;8.80;3.20;;;8.00;99.90;;;;;;5074429;28;20128;-72
2022/10/12 01:15:08;;;;;;;10.20;2.93;;;8.00;99.90;;;;;;5073570;28;20321;-72
2022/10/12 01:17:59;;;;;;;13.60;2.97;;;8.00;99.90;;;;;;5073649;28;20610;-72
2022/10/12 01:20:35;;;;;;;9.13;3.33;;;7.90;99.90;;;;;;5073567;28;20289;-72
2022/10/12 01:23:17;;;;;;;9.13;3.37;;;7.90;99.90;;;;;;5055870;28;20345;-74
2022/10/12 01:26:00;;;;;;;9.37;3.20;;;7.90;99.90;;;;;;5073840;28;20299;-72
2022/10/12 01:28:47;;;;;;;8.20;2.93;;;7.90;99.90;;;;;;5055545;28;20357;-72
2022/10/12 01:31:25;;;;;;;8.73;3.00;;;8.00;99.90;;;;;;5073375;28;20381;-72
2022/10/12 01:34:19;;;;;;;6.53;2.60;;;8.00;99.90;;;;;;5073388;28;20295;-72
2022/10/12 01:36:51;;;;;;;9.10;2.80;;;8.00;99.90;;;;;;5064453;28;20314;-72
2022/10/12 01:39:40;;;;;;;9.23;3.20;;;8.00;99.90;;;;;;5073960;28;20275;-72
2022/10/12 01:42:15;;;;;;;8.57;3.30;;;8.10;99.90;;;;;;5055911;28;20306;-72
2022/10/12 01:44:41;;;;;;;7.17;2.80;;;8.00;99.90;;;;;;5056409;28;20638;-72
2022/10/12 01:47:06;;;;;;;8.57;2.63;;;8.00;99.90;;;;;;5055446;28;20358;-72
2022/10/12 01:49:34;;;;;;;10.20;3.90;;;8.10;99.90;;;;;;5055131;28;20101;-72
2022/10/12 01:52:25;;;;;;;10.50;3.77;;;8.10;99.90;;;;;;5073100;28;20049;-72
2022/10/12 01:55:10;;;;;;;10.33;3.30;;;8.10;99.90;;;;;;5074063;28;20275;-72
2022/10/12 01:58:03;;;;;;;8.18;3.17;;;8.10;99.90;;;;;;5073246;28;20283;-72
2022/10/12 02:00:38;;;;;;;10.60;3.70;;;8.10;99.90;;;;;;5056267;28;20504;-72
2022/10/12 02:03:09;;;;;;;8.63;3.10;;;8.10;99.90;;;;;;5055481;28;20790;-72
2022/10/12 02:05:37;;;;;;;8.83;3.40;;;8.20;99.90;;;;;;5073634;28;20048;-72
2022/10/12 02:08:49;;;;;;;13.87;2.90;;;8.20;99.90;;;;;;5055477;28;20372;-71
2022/10/12 02:11:19;;;;;;;10.27;3.97;;;8.20;99.90;;;;;;4972470;28;20286;-72
2022/10/12 02:14:11;;;;;;;9.97;3.57;;;8.20;99.90;;;;;;5062101;28;20306;-72
2022/10/12 02:16:41;;;;;;;12.43;3.60;;;8.20;99.90;;;;;;5073910;28;20274;-72
2022/10/12 02:19:11;;;;;;;10.43;2.90;;;8.20;99.90;;;;;;5073049;28;20290;-72
2022/10/12 02:21:37;;;;;;;17.10;4.07;;;8.20;99.90;;;;;;5056010;28;20770;-71
2022/10/12 02:24:06;;;;;;;9.60;3.10;;;8.20;99.90;;;;;;5072976;28;20328;-72
2022/10/12 02:26:38;;;;;;;10.10;3.30;;;8.20;99.90;;;;;;5054854;28;20295;-72
2022/10/12 02:29:08;;;;;;;12.90;3.60;;;8.20;99.90;;;;;;5073501;28;20366;-71
2022/10/12 02:31:54;;;;;;;6.77;2.93;;;8.20;99.90;;;;;;5072862;28;20328;-72
2022/10/12 02:34:35;;;;;;;9.13;3.10;;;8.10;99.90;;;;;;5038235;28;20348;-72
2022/10/12 02:37:26;;;;;;;8.67;3.13;;;8.20;99.90;;;;;;5072939;28;20283;-71
2022/10/12 02:39:54;;;;;;;11.37;3.80;;;8.10;99.90;;;;;;5055866;28;20352;-71
2022/10/12 02:42:31;;;;;;;7.83;2.97;;;8.10;99.90;;;;;;5059077;28;20789;-72
2022/10/12 02:44:59;;;;;;;8.63;3.20;;;8.10;99.90;;;;;;5076800;28;20314;-72
2022/10/12 02:47:27;;;;;;;11.63;3.77;;;8.10;99.90;;;;;;5058725;28;20283;-72
2022/10/12 02:49:54;;;;;;;9.40;2.83;;;8.00;99.90;;;;;;5077143;28;20352;-72
2022/10/12 02:52:21;;;;;;;15.10;4.03;;;8.00;99.90;;;;;;5058507;28;20306;-72
2022/10/12 02:54:47;;;;;;;10.23;3.50;;;8.00;99.90;;;;;;5058694;28;20271;-72
2022/10/12 02:57:13;;;;;;;13.30;3.27;;;8.00;99.90;;;;;;5058430;28;20285;-73
2022/10/12 02:59:38;;;;;;;8.40;3.00;;;8.00;99.90;;;;;;5076104;28;20070;-72
2022/10/12 03:02:04;;;;;;;8.70;2.67;;;8.00;99.90;;;;;;5075870;28;20036;-72
2022/10/12 03:04:30;;;;;;;8.13;2.57;;;8.00;99.90;;;;;;5076095;28;20135;-72
2022/10/12 03:06:55;;;;;;;9.93;3.30;;;8.10;99.90;;;;;;5076358;28;20040;-72
2022/10/12 03:09:21;;;;;;;9.37;3.93;;;8.00;99.90;;;;;;5076001;28;20049;-72
2022/10/12 03:11:47;;;;;;;11.23;3.00;;;8.00;99.90;;;;;;5076262;28;20522;-72
2022/10/12 03:14:15;;;;;;;7.60;3.13;;;7.90;99.90;;;;;;5058290;28;20084;-72
2022/10/12 03:16:42;;;;;;;7.37;2.83;;;8.00;99.90;;;;;;5058486;28;20048;-72
2022/10/12 03:19:08;;;;;;;7.67;2.90;;;7.90;99.90;;;;;;5076624;28;20577;-71
2022/10/12 03:21:34;;;;;;;8.33;3.60;;;8.00;99.90;;;;;;5076535;28;20286;-72
2022/10/12 03:23:59;;;;;;;13.00;3.90;;;8.00;99.90;;;;;;5075722;28;20127;-72
2022/10/12 03:26:25;;;;;;;7.93;3.27;;;7.90;99.90;;;;;;5076084;28;20058;-72
2022/10/12 03:28:51;;;;;;;12.80;3.60;;;7.90;99.90;;;;;;5058766;28;20135;-72
2022/10/12 03:31:17;;;;;;;10.13;3.30;;;7.90;99.90;;;;;;5075650;28;20131;-73
2022/10/12 03:33:42;;;;;;;9.07;3.13;;;8.00;99.90;;;;;;5075496;28;20048;-72
2022/10/12 03:36:08;;;;;;;8.97;3.50;;;8.00;99.90;;;;;;5058652;28;20202;-72
2022/10/12 03:38:34;;;;;;;8.60;2.80;;;8.00;99.90;;;;;;5075440;28;20049;-72
2022/10/12 03:41:00;;;;;;;8.13;3.17;;;8.00;99.90;;;;;;5057650;28;20758;-72
2022/10/12 03:43:26;;;;;;;12.60;3.13;;;8.00;99.90;;;;;;5075363;28;20271;-72
2022/10/12 03:45:53;;;;;;;8.00;3.23;;;8.00;99.90;;;;;;5041149;28;20127;-72
2022/10/12 03:48:18;;;;;;;8.70;3.00;;;8.00;99.90;;;;;;5041865;28;20044;-73
2022/10/12 03:50:51;;;;;;;9.23;2.93;;;8.00;99.90;;;;;;5075285;28;20286;-72
2022/10/12 03:53:18;;;;;;;9.50;3.03;;;8.00;99.90;;;;;;5074380;28;20041;-72
2022/10/12 03:55:44;;;;;;;10.70;3.93;;;8.00;99.90;;;;;;5057342;28;20279;-72
2022/10/12 03:58:11;;;;;;;8.43;3.10;;;8.10;99.90;;;;;;5057458;28;20283;-72
2022/10/12 04:00:36;;;;;;;13.67;3.80;;;8.00;99.90;;;;;;5058199;28;20287;-72
2022/10/12 04:03:02;;;;;;;8.07;3.07;;;8.00;99.90;;;;;;5057219;28;20626;-72
2022/10/12 04:05:29;;;;;;;9.67;3.53;;;8.00;99.90;;;;;;5075775;28;20055;-72
2022/10/12 04:07:55;;;;;;;9.37;3.10;;;8.00;99.90;;;;;;5074842;28;20279;-72
2022/10/12 04:10:20;;;;;;;8.07;2.87;;;7.90;99.90;;;;;;5074526;28;20289;-74
2022/10/12 04:12:46;;;;;;;7.13;2.93;;;8.00;99.90;;;;;;5074757;28;20063;-72
2022/10/12 04:15:12;;;;;;;10.17;3.20;;;7.90;99.90;;;;;;5057093;28;20041;-72
2022/10/12 04:17:38;;;;;;;10.33;3.07;;;7.90;99.90;;;;;;5074720;28;20053;-72
2022/10/12 04:20:04;;;;;;;8.70;3.27;;;7.90;99.90;;;;;;5074653;28;20341;-72
2022/10/12 04:22:30;;;;;;;8.50;3.03;;;7.90;99.90;;;;;;5075110;28;20421;-72
2022/10/12 04:24:56;;;;;;;10.47;3.47;;;7.90;99.90;;;;;;5074280;28;20332;-72
2022/10/12 04:27:21;;;;;;;7.97;2.97;;;7.90;99.90;;;;;;5040349;28;20431;-72
2022/10/12 04:29:48;;;;;;;12.07;4.00;;;7.90;99.90;;;;;;5040270;28;20051;-71
2022/10/12 04:32:13;;;;;;;9.80;2.97;;;7.80;99.90;;;;;;5074419;28;20127;-72
2022/10/12 04:34:39;;;;;;;13.07;3.37;;;7.80;99.90;;;;;;5056779;28;20374;-72
2022/10/12 04:37:05;;;;;;;11.00;3.70;;;7.80;99.90;;;;;;5040176;28;20598;-72
2022/10/12 04:39:31;;;;;;;12.13;3.37;;;7.80;99.90;;;;;;5056442;28;20388;-71
2022/10/12 04:41:57;;;;;;;9.33;3.40;;;7.80;99.90;;;;;;5074778;28;20063;-72
2022/10/12 04:44:22;;;;;;;8.37;3.07;;;7.80;99.90;;;;;;5074999;28;20095;-72
2022/10/12 04:46:48;;;;;;;11.80;3.47;;;7.80;99.90;;;;;;5074632;28;20055;-72
2022/10/12 04:49:15;;;;;;;8.83;3.43;;;7.80;99.90;;;;;;5074134;28;20049;-72
2022/10/12 04:51:41;;;;;;;9.93;3.10;;;7.80;99.90;;;;;;5074055;28;20181;-72
2022/10/12 04:54:06;;;;;;;10.63;4.20;;;7.80;99.90;;;;;;5074754;28;20373;-71
2022/10/12 04:56:32;;;;;;;11.10;3.87;;;7.80;99.90;;;;;;5057125;28;20554;-72
2022/10/12 04:58:58;;;;;;;11.17;3.67;;;7.70;99.90;;;;;;5073944;28;20044;-72
2022/10/12 05:01:23;;;;;;;9.33;3.70;;;7.70;99.90;;;;;;5073869;28;20132;-71
2022/10/12 05:03:49;;;;;;;10.60;3.40;;;7.70;99.90;;;;;;5055695;28;20045;-72
2022/10/12 05:06:15;;;;;;;8.73;3.57;;;7.70;99.90;;;;;;5073789;28;20056;-71
2022/10/12 05:08:40;;;;;;;10.17;3.67;;;7.70;99.90;;;;;;5056034;28;20051;-72
2022/10/12 05:11:06;;;;;;;10.97;3.63;;;7.80;99.90;;;;;;5073779;28;20106;-71
2022/10/12 05:13:32;;;;;;;10.70;3.53;;;7.80;99.90;;;;;;5073617;28;20161;-72
2022/10/12 05:15:57;;;;;;;14.90;4.13;;;7.70;99.90;;;;;;5056854;28;20045;-72
2022/10/12 05:18:23;;;;;;;11.60;3.37;;;7.70;99.90;;;;;;5056502;28;20063;-71
2022/10/12 05:20:49;;;;;;;11.87;3.80;;;7.70;99.90;;;;;;5074129;28;20476;-72
2022/10/12 05:23:14;;;;;;;9.47;3.10;;;7.70;99.90;;;;;;5056659;28;20048;-71
2022/10/12 05:25:40;;;;;;;8.77;3.83;;;7.80;99.90;;;;;;5027587;28;20049;-72
2022/10/12 05:28:06;;;;;;;11.10;3.67;;;7.70;99.90;;;;;;5053500;28;20049;-72
2022/10/12 05:30:32;;;;;;;11.77;3.73;;;7.70;99.90;;;;;;5053444;28;20481;-72
2022/10/12 05:32:58;;;;;;;11.00;3.70;;;7.70;99.90;;;;;;5053393;28;20045;-72
2022/10/12 05:35:24;;;;;;;11.63;3.50;;;7.70;99.90;;;;;;5035650;28;20280;-71
2022/10/12 05:37:49;;;;;;;11.63;3.80;;;7.70;99.90;;;;;;5053359;28;20048;-71
2022/10/12 05:40:15;;;;;;;13.13;4.40;;;7.60;99.90;;;;;;5053593;28;20059;-72
2022/10/12 05:42:43;;;;;;;11.47;4.63;;;7.60;99.90;;;;;;5053317;28;20128;-72
2022/10/12 05:45:10;;;;;;;13.57;4.50;;;7.60;99.90;;;;;;5053266;28;20053;-72
2022/10/12 05:47:35;;;;;;;7.70;4.20;;;7.60;99.90;;;;;;5053246;28;20305;-72
2022/10/12 05:50:02;;;;;;;11.67;4.20;;;7.60;99.90;;;;;;5053699;28;20359;-72
2022/10/12 05:52:27;;;;;;;14.67;3.83;;;7.60;99.90;;;;;;5035440;28;20124;-72
2022/10/12 05:54:53;;;;;;;13.13;4.13;;;7.60;99.90;;;;;;5053297;28;20358;-72
2022/10/12 05:57:19;;;;;;;13.43;4.60;;;7.60;99.90;;;;;;5052920;28;20060;-72
2022/10/12 05:59:44;;;;;;;12.03;4.20;;;7.60;99.90;;;;;;5053865;28;20099;-72
2022/10/12 06:02:15;;;;;;;9.87;4.13;;;7.60;99.90;;;;;;5019588;28;20389;-72
2022/10/12 06:04:41;;;;;;;10.37;3.60;;;7.50;99.90;;;;;;5053136;28;20036;-71
2022/10/12 06:07:06;;;;;;;12.60;4.43;;;7.50;99.90;;;;;;5053276;28;20302;-71
2022/10/12 06:09:32;;;;;;;21.03;10.20;;;7.60;99.90;;;;;;5035366;28;20467;-71
2022/10/12 06:11:58;;;;;;;24.00;12.47;;;7.50;99.90;;;;;;5053537;28;20048;-71
2022/10/12 06:14:24;;;;;;;16.13;7.97;;;7.50;99.90;;;;;;5053340;28;20755;-71
2022/10/12 06:16:49;;;;;;;13.10;4.27;;;7.50;99.90;;;;;;5038803;28;20053;-72
2022/10/12 06:19:15;;;;;;;11.53;4.50;;;7.40;99.90;;;;;;5056918;28;20056;-72
2022/10/12 06:21:41;;;;;;;16.93;6.33;;;7.40;99.90;;;;;;5039074;28;20041;-72
2022/10/12 06:24:06;;;;;;;12.97;4.80;;;7.40;99.90;;;;;;5057166;28;20077;-71
2022/10/12 06:26:32;;;;;;;13.80;5.17;;;7.40;99.90;;;;;;5075648;28;20469;-72
2022/10/12 06:28:59;;;;;;;15.17;4.80;;;7.40;99.90;;;;;;5076408;28;20053;-71
2022/10/12 06:31:26;;;;;;;14.67;4.50;;;7.40;99.90;;;;;;5058995;28;20075;-72
2022/10/12 06:33:52;;;;;;;14.38;4.30;;;7.40;99.90;;;;;;5076559;28;20302;-72
2022/10/12 06:36:18;;;;;;;12.60;4.60;;;7.50;99.90;;;;;;5076666;28;20094;-72
2022/10/12 06:38:44;;;;;;;14.38;5.60;;;7.50;99.90;;;;;;5076597;28;20285;-72
2022/10/12 06:41:10;;;;;;;14.87;4.50;;;7.50;99.90;;;;;;5076375;28;20052;-72
2022/10/12 06:43:35;;;;;;;17.50;5.27;;;7.50;99.90;;;;;;5058567;28;20037;-72
2022/10/12 06:46:02;;;;;;;13.00;4.70;;;7.50;99.90;;;;;;5059327;28;20044;-72
2022/10/12 06:48:28;;;;;;;9.43;4.30;;;7.60;99.90;;;;;;5076897;28;20431;-72
2022/10/12 06:50:53;;;;;;;10.40;4.60;;;7.60;99.90;;;;;;5058827;28;20294;-72
2022/10/12 06:53:19;;;;;;;15.47;4.90;;;7.70;99.90;;;;;;5076214;28;20464;-72
2022/10/12 06:55:45;;;;;;;14.63;5.00;;;7.70;99.90;;;;;;5076539;28;20083;-73
2022/10/12 06:58:11;;;;;;;14.23;5.20;;;7.80;99.90;;;;;;5058368;28;20385;-72
2022/10/12 07:00:36;;;;;;;14.03;4.90;;;7.90;99.90;;;;;;5058587;28;20071;-72
2022/10/12 07:03:02;;;;;;;14.13;5.10;;;7.90;99.90;;;;;;5076122;28;20040;-72
2022/10/12 07:05:28;;;;;;;15.70;5.30;;;8.00;99.90;;;;;;5076102;28;20048;-72
2022/10/12 07:07:54;;;;;;;18.83;6.17;;;8.10;99.90;;;;;;5076786;28;20278;-69
2022/10/12 07:10:20;;;;;;;14.47;5.40;;;8.20;99.90;;;;;;5076014;28;20639;-69
2022/10/12 07:12:46;;;;;;;15.00;5.37;;;8.30;99.90;;;;;;5076573;28;20128;-69
2022/10/12 07:15:12;;;;;;;15.97;5.20;;;8.30;99.90;;;;;;5075608;28;20366;-69
2022/10/12 07:17:37;;;;;;;16.77;5.33;;;8.30;99.90;;;;;;5075859;28;20052;-69
2022/10/12 07:20:04;;;;;;;19.37;5.60;;;8.40;99.90;;;;;;5076314;28;20127;-69
2022/10/12 07:22:30;;;;;;;13.83;5.30;;;8.40;99.90;;;;;;5075666;28;20045;-69
2022/10/12 07:24:55;;;;;;;14.80;4.73;;;8.40;99.90;;;;;;5075425;28;20295;-69
2022/10/12 07:27:21;;;;;;;15.20;5.40;;;8.40;99.90;;;;;;5074517;28;20032;-69
2022/10/12 07:29:47;;;;;;;10.67;5.00;;;8.40;99.90;;;;;;5076192;28;20040;-69
2022/10/12 07:32:12;;;;;;;17.17;5.13;;;8.40;99.90;;;;;;5075877;28;20071;-69
2022/10/12 07:34:38;;;;;;;20.50;5.33;;;8.40;99.90;;;;;;5076135;28;20044;-69
2022/10/12 07:37:04;;;;;;;16.10;5.57;;;8.50;99.90;;;;;;5058088;28;20089;-69
2022/10/12 07:39:29;;;;;;;12.93;5.03;;;8.60;99.90;;;;;;5075510;28;20062;-69
2022/10/12 07:41:56;;;;;;;14.90;5.07;;;8.60;99.90;;;;;;5075444;28;20052;-69
2022/10/12 07:44:22;;;;;;;16.97;5.07;;;8.70;99.90;;;;;;5075140;28;20436;-69
2022/10/12 07:46:47;;;;;;;18.07;7.07;;;8.90;99.90;;;;;;5041267;28;20604;-69
2022/10/12 07:49:15;;;;;;;18.87;7.73;;;9.00;99.90;;;;;;5075360;28;20320;-69
2022/10/12 07:51:41;;;;;;;21.87;5.70;;;9.20;99.90;;;;;;5075206;28;20083;-69
2022/10/12 07:54:07;;;;;;;16.07;5.57;;;9.30;99.90;;;;;;5057003;28;20303;-69
2022/10/12 07:56:33;;;;;;;14.63;4.90;;;9.50;99.90;;;;;;5075138;28;20278;-69
2022/10/12 07:58:59;;;;;;;10.43;4.10;;;9.60;99.90;;;;;;5075386;28;20271;-70
2022/10/12 08:01:31;;;;;;;18.00;4.63;;;9.70;99.90;;;;;;5075023;28;20419;-69
2022/10/12 08:03:58;;;;;;;16.63;4.67;;;9.80;99.90;;;;;;5075256;28;20044;-69
2022/10/12 08:06:26;;;;;;;15.37;5.20;;;9.90;99.90;;;;;;5074865;28;20278;-69
2022/10/12 08:08:52;;;;;;;18.20;5.00;;;9.90;99.90;;;;;;5056938;28;20622;-70
2022/10/12 08:11:19;;;;;;;13.30;4.47;;;10.00;99.90;;;;;;5057020;28;20285;-69
2022/10/12 08:13:45;;;;;;;15.53;4.33;;;10.00;99.90;;;;;;5074747;28;20383;-69
2022/10/12 08:16:14;;;;;;;16.13;4.50;;;10.10;99.90;;;;;;5075252;28;20290;-69
2022/10/12 08:18:40;;;;;;;16.23;4.93;;;10.10;99.90;;;;;;5074675;28;20271;-69
2022/10/12 08:21:07;;;;;;;15.33;6.93;;;10.20;99.90;;;;;;5074555;28;20339;-69
2022/10/12 08:23:34;;;;;;;13.43;4.53;;;10.20;99.90;;;;;;5074484;28;20052;-69
2022/10/12 08:26:01;;;;;;;16.23;4.23;;;10.20;99.90;;;;;;5056410;28;20442;-69
2022/10/12 08:28:27;;;;;;;14.20;5.40;;;10.30;99.90;;;;;;5074479;28;20643;-70
2022/10/12 08:30:52;;;;;;;15.23;4.77;;;10.30;99.90;;;;;;5074395;28;20283;-69
2022/10/12 08:33:19;;;;;;;14.20;4.03;;;10.40;99.90;;;;;;5056574;28;20355;-69
2022/10/12 08:35:46;;;;;;;12.83;4.30;;;10.40;99.90;;;;;;5074293;28;20044;-69
2022/10/12 08:38:13;;;;;;;15.37;4.87;;;10.40;99.90;;;;;;5074415;28;20279;-69
2022/10/12 08:41:03;;;;;;;15.33;4.30;;;10.40;99.90;;;;;;5056863;28;20416;-69
2022/10/12 08:43:42;;;;;;;20.67;4.57;;;10.50;99.90;;;;;;5074177;28;20275;-69
2022/10/12 08:46:08;;;;;;;18.47;4.40;;;10.50;99.90;;;;;;5057408;28;20673;-69
2022/10/12 08:49:04;;;;;;;18.43;4.57;;;10.50;99.90;;;;;;5073968;28;20370;-68
2022/10/12 08:51:32;;;;;;;20.52;4.88;;;10.50;99.90;;;;;;5052725;28;20401;-70
2022/10/12 08:54:11;;;;;;;18.47;4.67;;;10.50;99.90;;;;;;5074436;28;20047;-70
2022/10/12 08:56:39;;;;;;;18.13;5.20;;;10.50;99.90;;;;;;5073951;28;20275;-70
2022/10/12 08:59:08;;;;;;;15.87;4.43;;;10.50;99.90;;;;;;5040049;28;20321;-70
2022/10/12 09:01:48;;;;;;;15.70;4.37;;;10.50;99.90;;;;;;5073905;28;20662;-69
2022/10/12 09:04:35;;;;;;;14.53;4.50;;;10.60;99.90;;;;;;5074713;28;20274;-70
2022/10/12 09:07:11;;;;;;;15.73;4.10;;;10.60;99.90;;;;;;5073475;28;20790;-70
2022/10/12 09:09:58;;;;;;;15.43;3.47;;;10.70;99.90;;;;;;5074534;28;20267;-69
2022/10/12 09:12:54;;;;;;;12.40;3.83;;;10.70;99.90;;;;;;5073671;28;20291;-69
2022/10/12 09:16:03;;;;;;;17.67;4.70;;;10.80;99.90;;;;;;5073688;28;20631;-68
2022/10/12 09:18:39;;;;;;;13.87;4.00;;;10.90;99.90;;;;;;5056007;28;20408;-71
2022/10/12 09:21:10;;;;;;;11.67;4.07;;;10.90;99.90;;;;;;5073567;28;20332;-72
2022/10/12 09:23:43;;;;;;;14.03;4.20;;;10.90;99.90;;;;;;5074126;28;20278;-75
2022/10/12 09:26:12;;;;;;;7.73;3.17;;;11.00;99.90;;;;;;5073750;28;20369;-70
2022/10/12 09:28:48;;;;;;;15.43;5.07;;;11.10;99.90;;;;;;5073791;28;20684;-70
2022/10/12 09:31:47;;;;;;;20.53;6.33;;;11.10;99.90;;;;;;5073479;28;20285;-70
2022/10/12 09:34:13;;;;;;;16.17;4.20;;;11.20;99.90;;;;;;5073676;28;20375;-69
2022/10/12 09:36:40;;;;;;;14.87;3.70;;;11.30;99.90;;;;;;5073488;28;20373;-69
2022/10/12 09:39:18;;;;;;;14.90;4.27;;;11.40;99.90;;;;;;5073453;28;20131;-72
2022/10/12 09:41:46;;;;;;;12.80;3.97;;;11.50;99.90;;;;;;5073994;28;20270;-71
2022/10/12 09:44:25;;;;;;;11.47;3.80;;;11.60;99.90;;;;;;5073375;28;20275;-70
2022/10/12 09:46:59;;;;;;;11.63;3.83;;;11.50;99.90;;;;;;5073452;28;20290;-71
2022/10/12 09:49:45;;;;;;;12.03;3.43;;;11.60;99.90;;;;;;5055433;28;20289;-72
2022/10/12 09:52:14;;;;;;;22.92;4.15;;;11.60;99.90;;;;;;5055395;28;20295;-72
2022/10/12 09:54:45;;;;;;;13.47;3.47;;;11.60;99.90;;;;;;5055913;28;20075;-72
2022/10/12 09:57:38;;;;;;;15.00;4.37;;;11.60;99.90;;;;;;5073806;28;20263;-71
2022/10/12 10:00:21;;;;;;;14.53;3.83;;;11.60;99.90;;;;;;5054915;28;20279;-72
2022/10/12 10:02:48;;;;;;;13.47;3.60;;;11.70;99.90;;;;;;5073797;28;20278;-72
2022/10/12 10:05:25;;;;;;;14.80;3.90;;;11.80;99.90;;;;;;5073192;28;20283;-72
2022/10/12 10:07:51;;;;;;;17.00;4.03;;;11.90;99.90;;;;;;5073173;28;20374;-71
2022/10/12 10:10:22;;;;;;;18.87;4.20;;;11.90;99.90;;;;;;5073898;28;20285;-72
2022/10/12 10:12:53;;;;;;;13.23;3.83;;;11.90;99.90;;;;;;5072998;28;20291;-71
2022/10/12 10:15:27;;;;;;;17.30;4.80;;;12.00;99.90;;;;;;5072846;28;20762;-71
2022/10/12 10:18:06;;;;;;;12.60;3.57;;;12.00;99.90;;;;;;5073377;28;20340;-71
2022/10/12 10:20:35;;;;;;;17.53;3.67;;;11.90;99.90;;;;;;5055214;28;20273;-72
2022/10/12 10:23:03;;;;;;;14.13;4.40;;;11.90;99.90;;;;;;5072981;28;20763;-70
2022/10/12 10:25:29;;;;;;;12.57;3.70;;;12.00;99.90;;;;;;5054867;28;20298;-72
2022/10/12 10:28:21;;;;;;;11.73;3.40;;;12.00;99.90;;;;;;5072910;28;20282;-72
2022/10/12 10:31:26;;;;;;;12.90;3.70;;;12.10;99.90;;;;;;5059437;28;20322;-71
2022/10/12 10:34:16;;;;;;;13.37;3.20;;;12.10;99.90;;;;;;5060487;28;20909;-72
2022/10/12 10:37:00;;;;;;;17.33;3.70;;;12.20;99.90;;;;;;5072752;28;20788;-72
2022/10/12 10:39:48;;;;;;;12.97;3.30;;;12.30;99.90;;;;;;5072619;28;20615;-71
2022/10/12 10:42:33;;;;;;;12.07;3.03;;;12.20;99.90;;;;;;5072537;28;20346;-72
2022/10/12 10:45:28;;;;;;;14.07;4.25;;;12.30;99.90;;;;;;5073032;28;20675;-70
2022/10/12 10:48:43;;;;;;;18.20;4.80;;;12.30;99.90;;;;;;5073029;28;20036;-71
2022/10/12 10:51:09;;;;;;;14.10;3.00;;;12.30;99.90;;;;;;5067297;28;20372;-74
2022/10/12 10:53:46;;;;;;;14.73;3.20;;;12.40;99.90;;;;;;5072727;28;20374;-70
2022/10/12 10:56:25;;;;;;;13.60;3.40;;;12.30;99.90;;;;;;5054802;28;20045;-70
2022/10/12 10:59:08;;;;;;;12.93;3.60;;;12.40;99.90;;;;;;5073461;28;20282;-70
2022/10/12 11:01:35;;;;;;;13.70;3.70;;;12.40;99.90;;;;;;5073653;28;20425;-71
2022/10/12 11:04:17;;;;;;;14.83;3.73;;;12.40;99.90;;;;;;5076067;28;20385;-70
2022/10/12 11:06:51;;;;;;;13.10;3.47;;;12.40;99.90;;;;;;5076044;28;20281;-70
2022/10/12 11:09:28;;;;;;;14.13;3.73;;;12.50;99.90;;;;;;5059023;28;20370;-71
2022/10/12 11:12:24;;;;;;;14.50;3.73;;;12.50;99.90;;;;;;5076568;28;20275;-68
2022/10/12 11:14:53;;;;;;;13.07;4.43;;;12.60;99.90;;;;;;5063467;28;20306;-68
2022/10/12 11:17:24;;;;;;;17.43;3.70;;;12.70;99.90;;;;;;5076643;28;20059;-69
2022/10/12 11:19:59;;;;;;;17.73;3.63;;;12.90;99.90;;;;;;5058230;28;20295;-68
2022/10/12 11:22:56;;;;;;;18.98;3.90;;;13.00;99.90;;;;;;5058845;28;20291;-68
2022/10/12 11:25:25;;;;;;;13.90;3.90;;;13.10;99.90;;;;;;5075777;28;20057;-69
2022/10/12 11:27:51;;;;;;;12.90;3.70;;;13.10;99.90;;;;;;5075759;28;20294;-69
2022/10/12 11:30:20;;;;;;;14.97;3.63;;;13.10;99.90;;;;;;5075575;28;20361;-70
2022/10/12 11:33:12;;;;;;;15.67;3.97;;;13.10;99.90;;;;;;5058005;28;20310;-69
2022/10/12 11:35:44;;;;;;;12.87;3.40;;;13.10;99.90;;;;;;5064773;28;20290;-70
2022/10/12 11:38:19;;;;;;;15.33;4.80;;;13.10;99.90;;;;;;5075540;28;20364;-71
2022/10/12 11:40:53;;;;;;;13.27;4.80;;;13.10;99.90;;;;;;5075802;28;20317;-69
2022/10/12 11:43:27;;;;;;;14.33;3.43;;;13.10;99.90;;;;;;5076609;28;20055;-69
2022/10/12 11:45:59;;;;;;;12.33;3.27;;;13.20;99.90;;;;;;5058309;28;20785;-68
2022/10/12 11:48:37;;;;;;;12.97;3.00;;;13.30;99.90;;;;;;5076043;28;20329;-68
2022/10/12 11:51:04;;;;;;;12.87;3.20;;;13.40;99.90;;;;;;5075360;28;20734;-69
2022/10/12 11:53:41;;;;;;;11.60;2.50;;;13.40;99.90;;;;;;5075061;28;20444;-69
2022/10/12 11:56:19;;;;;;;12.53;2.90;;;13.40;99.90;;;;;;5075474;28;20279;-69
2022/10/12 11:58:47;;;;;;;11.67;3.10;;;13.30;99.90;;;;;;5076049;28;20279;-69
2022/10/12 12:01:20;;;;;;;13.73;2.90;;;13.30;99.90;;;;;;5075886;28;20376;-69
2022/10/12 12:03:55;;;;;;;11.13;2.90;;;13.20;99.90;;;;;;5075406;28;20290;-69
2022/10/12 12:06:30;;;;;;;13.23;3.08;;;13.20;99.90;;;;;;5057975;28;20286;-69
2022/10/12 12:09:19;;;;;;;15.07;3.25;;;13.30;99.90;;;;;;5075016;28;20102;-69
2022/10/12 12:11:44;;;;;;;10.83;2.83;;;13.40;99.90;;;;;;5044205;28;20061;-69
2022/10/12 12:14:25;;;;;;;18.23;4.10;;;13.40;99.90;;;;;;5074018;28;20299;-69
2022/10/12 12:17:16;;;;;;;13.17;3.23;;;13.40;99.90;;;;;;5075114;28;20510;-69
2022/10/12 12:19:43;;;;;;;14.43;3.30;;;13.40;99.90;;;;;;5074710;28;20287;-69
2022/10/12 12:22:35;;;;;;;11.67;2.80;;;13.50;99.90;;;;;;5074702;28;20293;-69
2022/10/12 12:25:09;;;;;;;16.60;4.13;;;13.40;99.90;;;;;;5074808;28;20685;-69
2022/10/12 12:27:47;;;;;;;12.53;2.80;;;13.50;99.90;;;;;;5074590;28;20825;-69
2022/10/12 12:30:23;;;;;;;11.70;3.00;;;13.50;99.90;;;;;;5074944;28;20382;-69
2022/10/12 12:32:51;;;;;;;11.50;2.97;;;13.50;99.90;;;;;;5075210;28;20388;-69
2022/10/12 12:35:28;;;;;;;9.20;2.70;;;13.60;99.90;;;;;;5074489;28;20287;-69
2022/10/12 12:38:12;;;;;;;10.50;3.13;;;13.60;99.90;;;;;;5074445;28;20801;-69
2022/10/12 12:40:52;;;;;;;12.00;3.20;;;13.60;99.90;;;;;;5074361;28;20328;-69
2022/10/12 12:43:18;;;;;;;11.90;2.70;;;13.60;99.90;;;;;;5074363;28;20311;-69
2022/10/12 12:45:55;;;;;;;12.73;2.80;;;13.60;99.90;;;;;;5074710;28;20283;-69
2022/10/12 12:48:50;;;;;;;15.60;3.70;;;13.60;99.90;;;;;;5073883;28;20549;-69
2022/10/12 12:51:23;;;;;;;12.97;3.07;;;13.60;99.90;;;;;;5052423;28;20759;-69
2022/10/12 12:53:55;;;;;;;10.87;2.80;;;13.60;99.90;;;;;;5074056;28;20839;-69
2022/10/12 12:56:29;;;;;;;15.63;2.97;;;13.60;99.90;;;;;;5074825;28;20311;-69
2022/10/12 12:59:04;;;;;;;12.18;2.50;;;13.60;99.90;;;;;;5074599;28;20306;-69
2022/10/12 13:01:49;;;;;;;11.93;3.00;;;13.60;99.90;;;;;;5057153;28;20426;-69
2022/10/12 13:04:31;;;;;;;18.65;3.22;;;13.60;99.90;;;;;;5074003;28;20052;-69
2022/10/12 13:07:35;;;;;;;21.40;4.50;;;13.70;99.90;;;;;;5074220;28;20434;-69